sensor_id;sensor_type;location;lat;lon;timestamp;P1;durP1;ratioP1;P2;durP2;ratioP2
70927;SDS011;58587;53.034;18.576;2024-02-16T00:01:40;73.00;;;30.70;;
70927;SDS011;58587;53.034;18.576;2024-02-16T00:04:06;67.97;;;30.30;;
70927;SDS011;58587;53.034;18.576;2024-02-16T00:06:32;57.40;;;28.02;;
70927;SDS011;58587;53.034;18.576;2024-02-16T00:08:59;56.70;;;26.98;;
70927;SDS011;58587;53.034;18.576;2024-02-16T00:11:24;62.87;;;29.73;;
70927;SDS011;58587;53.034;18.576;2024-02-16T00:13:50;56.35;;;26.27;;
70927;SDS011;58587;53.034;18.576;2024-02-16T00:16:15;50.63;;;25.33;;
70927;SDS011;58587;53.034;18.576;2024-02-16T00:18:41;46.83;;;23.53;;
70927;SDS011;58587;53.034;18.576;2024-02-16T00:21:06;45.22;;;23.10;;
70927;SDS011;58587;53.034;18.576;2024-02-16T00:23:32;48.05;;;24.13;;
70927;SDS011;58587;53.034;18.576;2024-02-16T00:25:58;48.40;;;23.45;;
70927;SDS011;58587;53.034;18.576;2024-02-16T00:28:24;45.97;;;23.97;;
70927;SDS011;58587;53.034;18.576;2024-02-16T00:30:49;46.10;;;22.83;;
70927;SDS011;58587;53.034;18.576;2024-02-16T00:33:15;44.83;;;23.20;;
70927;SDS011;58587;53.034;18.576;2024-02-16T00:35:42;48.15;;;24.40;;
70927;SDS011;58587;53.034;18.576;2024-02-16T00:38:08;45.47;;;24.23;;
70927;SDS011;58587;53.034;18.576;2024-02-16T00:40:33;40.50;;;22.13;;
70927;SDS011;58587;53.034;18.576;2024-02-16T00:42:59;46.07;;;23.40;;
70927;SDS011;58587;53.034;18.576;2024-02-16T00:45:24;44.93;;;24.57;;
70927;SDS011;58587;53.034;18.576;2024-02-16T00:47:50;48.03;;;24.90;;
70927;SDS011;58587;53.034;18.576;2024-02-16T00:50:15;60.05;;;28.40;;
70927;SDS011;58587;53.034;18.576;2024-02-16T00:52:41;45.23;;;24.93;;
70927;SDS011;58587;53.034;18.576;2024-02-16T00:55:09;48.72;;;25.00;;
70927;SDS011;58587;53.034;18.576;2024-02-16T00:57:35;46.20;;;24.40;;
70927;SDS011;58587;53.034;18.576;2024-02-16T01:00:01;46.85;;;24.55;;
70927;SDS011;58587;53.034;18.576;2024-02-16T01:02:28;48.55;;;25.10;;
70927;SDS011;58587;53.034;18.576;2024-02-16T01:04:54;48.70;;;23.63;;
70927;SDS011;58587;53.034;18.576;2024-02-16T01:07:23;45.05;;;23.20;;
70927;SDS011;58587;53.034;18.576;2024-02-16T01:09:48;43.77;;;23.27;;
70927;SDS011;58587;53.034;18.576;2024-02-16T01:12:14;44.28;;;23.90;;
70927;SDS011;58587;53.034;18.576;2024-02-16T01:14:39;47.90;;;23.83;;
70927;SDS011;58587;53.034;18.576;2024-02-16T01:17:04;44.50;;;23.57;;
70927;SDS011;58587;53.034;18.576;2024-02-16T01:19:30;42.70;;;21.57;;
70927;SDS011;58587;53.034;18.576;2024-02-16T01:21:55;42.50;;;23.58;;
70927;SDS011;58587;53.034;18.576;2024-02-16T01:24:23;46.72;;;21.80;;
70927;SDS011;58587;53.034;18.576;2024-02-16T01:26:48;41.85;;;22.85;;
70927;SDS011;58587;53.034;18.576;2024-02-16T01:29:14;55.37;;;28.13;;
70927;SDS011;58587;53.034;18.576;2024-02-16T01:31:39;59.43;;;27.87;;
70927;SDS011;58587;53.034;18.576;2024-02-16T01:34:05;51.50;;;25.17;;
70927;SDS011;58587;53.034;18.576;2024-02-16T01:36:30;47.13;;;24.33;;
70927;SDS011;58587;53.034;18.576;2024-02-16T01:38:55;47.77;;;23.23;;
70927;SDS011;58587;53.034;18.576;2024-02-16T01:41:21;46.67;;;23.77;;
70927;SDS011;58587;53.034;18.576;2024-02-16T01:43:46;48.30;;;24.07;;
70927;SDS011;58587;53.034;18.576;2024-02-16T01:46:11;44.13;;;23.63;;
70927;SDS011;58587;53.034;18.576;2024-02-16T01:48:37;45.85;;;23.85;;
70927;SDS011;58587;53.034;18.576;2024-02-16T01:51:04;47.65;;;25.30;;
70927;SDS011;58587;53.034;18.576;2024-02-16T01:53:31;47.10;;;24.13;;
70927;SDS011;58587;53.034;18.576;2024-02-16T01:55:57;45.35;;;25.15;;
70927;SDS011;58587;53.034;18.576;2024-02-16T01:58:22;44.83;;;23.70;;
70927;SDS011;58587;53.034;18.576;2024-02-16T02:00:48;43.67;;;23.53;;
70927;SDS011;58587;53.034;18.576;2024-02-16T02:03:14;42.92;;;22.45;;
70927;SDS011;58587;53.034;18.576;2024-02-16T02:05:44;43.45;;;21.38;;
70927;SDS011;58587;53.034;18.576;2024-02-16T02:08:13;43.25;;;20.95;;
70927;SDS011;58587;53.034;18.576;2024-02-16T02:10:39;40.87;;;22.20;;
70927;SDS011;58587;53.034;18.576;2024-02-16T02:13:04;39.45;;;21.50;;
70927;SDS011;58587;53.034;18.576;2024-02-16T02:15:30;40.42;;;21.77;;
70927;SDS011;58587;53.034;18.576;2024-02-16T02:17:55;43.33;;;22.43;;
70927;SDS011;58587;53.034;18.576;2024-02-16T02:20:23;40.47;;;22.05;;
70927;SDS011;58587;53.034;18.576;2024-02-16T02:22:48;39.10;;;21.08;;
70927;SDS011;58587;53.034;18.576;2024-02-16T02:25:13;41.13;;;21.70;;
70927;SDS011;58587;53.034;18.576;2024-02-16T02:27:39;39.53;;;22.50;;
70927;SDS011;58587;53.034;18.576;2024-02-16T02:30:05;43.22;;;22.42;;
70927;SDS011;58587;53.034;18.576;2024-02-16T02:32:31;38.03;;;22.20;;
70927;SDS011;58587;53.034;18.576;2024-02-16T02:34:57;43.00;;;22.20;;
70927;SDS011;58587;53.034;18.576;2024-02-16T02:37:23;41.87;;;23.73;;
70927;SDS011;58587;53.034;18.576;2024-02-16T02:39:48;41.72;;;22.98;;
70927;SDS011;58587;53.034;18.576;2024-02-16T02:42:13;40.13;;;22.85;;
70927;SDS011;58587;53.034;18.576;2024-02-16T02:44:39;42.13;;;22.40;;
70927;SDS011;58587;53.034;18.576;2024-02-16T02:47:04;39.03;;;21.40;;
70927;SDS011;58587;53.034;18.576;2024-02-16T02:49:29;38.77;;;20.90;;
70927;SDS011;58587;53.034;18.576;2024-02-16T02:51:55;37.93;;;20.53;;
70927;SDS011;58587;53.034;18.576;2024-02-16T02:54:20;39.80;;;20.77;;
70927;SDS011;58587;53.034;18.576;2024-02-16T02:56:46;39.20;;;21.53;;
70927;SDS011;58587;53.034;18.576;2024-02-16T02:59:11;40.27;;;21.43;;
70927;SDS011;58587;53.034;18.576;2024-02-16T03:01:36;36.80;;;21.10;;
70927;SDS011;58587;53.034;18.576;2024-02-16T03:04:02;39.60;;;21.63;;
70927;SDS011;58587;53.034;18.576;2024-02-16T03:06:28;37.58;;;20.33;;
70927;SDS011;58587;53.034;18.576;2024-02-16T03:08:53;37.23;;;19.97;;
70927;SDS011;58587;53.034;18.576;2024-02-16T03:11:19;41.33;;;20.80;;
70927;SDS011;58587;53.034;18.576;2024-02-16T03:13:45;38.43;;;20.90;;
70927;SDS011;58587;53.034;18.576;2024-02-16T03:16:10;39.37;;;21.47;;
70927;SDS011;58587;53.034;18.576;2024-02-16T03:18:36;36.67;;;20.33;;
70927;SDS011;58587;53.034;18.576;2024-02-16T03:21:01;34.40;;;19.37;;
70927;SDS011;58587;53.034;18.576;2024-02-16T03:23:27;37.13;;;20.07;;
70927;SDS011;58587;53.034;18.576;2024-02-16T03:25:52;36.47;;;20.17;;
70927;SDS011;58587;53.034;18.576;2024-02-16T03:28:18;32.70;;;18.97;;
70927;SDS011;58587;53.034;18.576;2024-02-16T03:30:43;36.47;;;19.43;;
70927;SDS011;58587;53.034;18.576;2024-02-16T03:33:09;35.05;;;19.27;;
70927;SDS011;58587;53.034;18.576;2024-02-16T03:35:35;34.03;;;18.63;;
70927;SDS011;58587;53.034;18.576;2024-02-16T03:38:01;36.97;;;18.58;;
70927;SDS011;58587;53.034;18.576;2024-02-16T03:40:27;32.10;;;17.55;;
70927;SDS011;58587;53.034;18.576;2024-02-16T03:42:53;33.33;;;17.77;;
70927;SDS011;58587;53.034;18.576;2024-02-16T03:45:18;32.50;;;17.42;;
70927;SDS011;58587;53.034;18.576;2024-02-16T03:47:44;33.05;;;17.60;;
70927;SDS011;58587;53.034;18.576;2024-02-16T03:50:09;31.47;;;17.90;;
70927;SDS011;58587;53.034;18.576;2024-02-16T03:52:36;29.90;;;16.98;;
70927;SDS011;58587;53.034;18.576;2024-02-16T03:55:01;33.97;;;18.37;;
70927;SDS011;58587;53.034;18.576;2024-02-16T03:57:27;33.80;;;17.60;;
70927;SDS011;58587;53.034;18.576;2024-02-16T03:59:52;31.80;;;18.17;;
70927;SDS011;58587;53.034;18.576;2024-02-16T04:02:17;32.30;;;18.27;;
70927;SDS011;58587;53.034;18.576;2024-02-16T04:04:43;30.25;;;17.27;;
70927;SDS011;58587;53.034;18.576;2024-02-16T04:07:09;33.17;;;18.08;;
70927;SDS011;58587;53.034;18.576;2024-02-16T04:09:34;30.33;;;18.23;;
70927;SDS011;58587;53.034;18.576;2024-02-16T04:12:03;30.70;;;17.90;;
70927;SDS011;58587;53.034;18.576;2024-02-16T04:14:29;33.97;;;18.17;;
70927;SDS011;58587;53.034;18.576;2024-02-16T04:16:55;33.35;;;17.77;;
70927;SDS011;58587;53.034;18.576;2024-02-16T04:19:23;32.40;;;17.95;;
70927;SDS011;58587;53.034;18.576;2024-02-16T04:21:49;34.60;;;18.58;;
70927;SDS011;58587;53.034;18.576;2024-02-16T04:24:14;34.88;;;17.25;;
70927;SDS011;58587;53.034;18.576;2024-02-16T04:26:40;32.30;;;17.60;;
70927;SDS011;58587;53.034;18.576;2024-02-16T04:29:05;35.13;;;17.93;;
70927;SDS011;58587;53.034;18.576;2024-02-16T04:31:30;33.50;;;18.13;;
70927;SDS011;58587;53.034;18.576;2024-02-16T04:33:55;31.20;;;18.20;;
70927;SDS011;58587;53.034;18.576;2024-02-16T04:36:21;31.53;;;17.30;;
70927;SDS011;58587;53.034;18.576;2024-02-16T04:38:46;31.13;;;16.70;;
70927;SDS011;58587;53.034;18.576;2024-02-16T04:41:12;35.83;;;17.85;;
70927;SDS011;58587;53.034;18.576;2024-02-16T04:43:37;29.43;;;16.83;;
70927;SDS011;58587;53.034;18.576;2024-02-16T04:46:04;31.27;;;17.27;;
70927;SDS011;58587;53.034;18.576;2024-02-16T04:48:29;32.73;;;17.83;;
70927;SDS011;58587;53.034;18.576;2024-02-16T04:50:56;32.75;;;17.80;;
70927;SDS011;58587;53.034;18.576;2024-02-16T04:53:21;34.67;;;18.20;;
70927;SDS011;58587;53.034;18.576;2024-02-16T04:55:46;31.00;;;17.30;;
70927;SDS011;58587;53.034;18.576;2024-02-16T04:58:12;31.33;;;17.08;;
70927;SDS011;58587;53.034;18.576;2024-02-16T05:00:38;32.50;;;17.43;;
70927;SDS011;58587;53.034;18.576;2024-02-16T05:03:03;29.53;;;15.93;;
70927;SDS011;58587;53.034;18.576;2024-02-16T05:05:29;33.80;;;17.70;;
70927;SDS011;58587;53.034;18.576;2024-02-16T05:07:55;28.90;;;16.88;;
70927;SDS011;58587;53.034;18.576;2024-02-16T05:10:22;34.37;;;16.80;;
70927;SDS011;58587;53.034;18.576;2024-02-16T05:12:47;30.65;;;16.80;;
70927;SDS011;58587;53.034;18.576;2024-02-16T05:15:13;29.00;;;16.30;;
70927;SDS011;58587;53.034;18.576;2024-02-16T05:17:38;31.47;;;16.27;;
70927;SDS011;58587;53.034;18.576;2024-02-16T05:20:13;33.90;;;16.90;;
70927;SDS011;58587;53.034;18.576;2024-02-16T05:22:43;29.75;;;16.88;;
70927;SDS011;58587;53.034;18.576;2024-02-16T05:25:10;27.00;;;16.25;;
70927;SDS011;58587;53.034;18.576;2024-02-16T05:27:36;30.53;;;16.37;;
70927;SDS011;58587;53.034;18.576;2024-02-16T05:30:02;32.65;;;15.95;;
70927;SDS011;58587;53.034;18.576;2024-02-16T05:32:29;34.15;;;17.10;;
70927;SDS011;58587;53.034;18.576;2024-02-16T05:34:54;28.33;;;16.13;;
70927;SDS011;58587;53.034;18.576;2024-02-16T05:37:20;32.67;;;16.67;;
70927;SDS011;58587;53.034;18.576;2024-02-16T05:39:47;34.10;;;16.55;;
70927;SDS011;58587;53.034;18.576;2024-02-16T05:42:33;30.33;;;16.25;;
70927;SDS011;58587;53.034;18.576;2024-02-16T05:44:58;34.53;;;17.77;;
70927;SDS011;58587;53.034;18.576;2024-02-16T05:47:24;37.40;;;17.10;;
70927;SDS011;58587;53.034;18.576;2024-02-16T05:49:49;31.67;;;16.97;;
70927;SDS011;58587;53.034;18.576;2024-02-16T05:52:15;31.52;;;17.88;;
70927;SDS011;58587;53.034;18.576;2024-02-16T05:54:46;30.67;;;16.60;;
70927;SDS011;58587;53.034;18.576;2024-02-16T05:57:15;33.72;;;17.75;;
70927;SDS011;58587;53.034;18.576;2024-02-16T05:59:41;29.98;;;17.30;;
70927;SDS011;58587;53.034;18.576;2024-02-16T06:02:07;32.88;;;17.67;;
70927;SDS011;58587;53.034;18.576;2024-02-16T06:04:35;32.80;;;17.77;;
70927;SDS011;58587;53.034;18.576;2024-02-16T06:07:00;33.05;;;18.13;;
70927;SDS011;58587;53.034;18.576;2024-02-16T06:09:26;30.77;;;16.90;;
70927;SDS011;58587;53.034;18.576;2024-02-16T06:11:55;29.88;;;17.65;;
70927;SDS011;58587;53.034;18.576;2024-02-16T06:14:21;34.90;;;18.83;;
70927;SDS011;58587;53.034;18.576;2024-02-16T06:16:47;36.13;;;17.58;;
70927;SDS011;58587;53.034;18.576;2024-02-16T06:19:13;30.87;;;17.60;;
70927;SDS011;58587;53.034;18.576;2024-02-16T06:21:39;31.63;;;16.98;;
70927;SDS011;58587;53.034;18.576;2024-02-16T06:24:04;33.17;;;17.70;;
70927;SDS011;58587;53.034;18.576;2024-02-16T06:26:30;35.45;;;17.45;;
70927;SDS011;58587;53.034;18.576;2024-02-16T06:28:55;32.63;;;16.80;;
70927;SDS011;58587;53.034;18.576;2024-02-16T06:31:21;33.83;;;17.63;;
70927;SDS011;58587;53.034;18.576;2024-02-16T06:33:46;33.23;;;17.83;;
70927;SDS011;58587;53.034;18.576;2024-02-16T06:36:11;32.40;;;17.73;;
70927;SDS011;58587;53.034;18.576;2024-02-16T06:38:37;35.03;;;19.30;;
70927;SDS011;58587;53.034;18.576;2024-02-16T06:41:02;36.15;;;18.70;;
70927;SDS011;58587;53.034;18.576;2024-02-16T06:43:28;35.50;;;18.27;;
70927;SDS011;58587;53.034;18.576;2024-02-16T06:45:53;32.70;;;17.23;;
70927;SDS011;58587;53.034;18.576;2024-02-16T06:48:21;37.20;;;22.40;;
70927;SDS011;58587;53.034;18.576;2024-02-16T06:50:47;35.60;;;19.23;;
70927;SDS011;58587;53.034;18.576;2024-02-16T06:53:12;42.58;;;22.67;;
70927;SDS011;58587;53.034;18.576;2024-02-16T06:55:38;39.37;;;18.97;;
70927;SDS011;58587;53.034;18.576;2024-02-16T06:58:03;33.83;;;18.17;;
70927;SDS011;58587;53.034;18.576;2024-02-16T07:00:28;36.80;;;19.27;;
70927;SDS011;58587;53.034;18.576;2024-02-16T07:02:54;38.00;;;19.77;;
70927;SDS011;58587;53.034;18.576;2024-02-16T07:05:19;38.22;;;20.02;;
70927;SDS011;58587;53.034;18.576;2024-02-16T07:07:44;57.77;;;34.23;;
70927;SDS011;58587;53.034;18.576;2024-02-16T07:10:10;40.93;;;22.70;;
70927;SDS011;58587;53.034;18.576;2024-02-16T07:12:38;47.88;;;25.77;;
70927;SDS011;58587;53.034;18.576;2024-02-16T07:15:05;39.43;;;21.77;;
70927;SDS011;58587;53.034;18.576;2024-02-16T07:17:30;37.42;;;19.73;;
70927;SDS011;58587;53.034;18.576;2024-02-16T07:19:56;41.07;;;20.43;;
70927;SDS011;58587;53.034;18.576;2024-02-16T07:22:21;37.70;;;19.27;;
70927;SDS011;58587;53.034;18.576;2024-02-16T07:24:46;39.47;;;20.33;;
70927;SDS011;58587;53.034;18.576;2024-02-16T07:27:12;37.37;;;21.13;;
70927;SDS011;58587;53.034;18.576;2024-02-16T07:29:37;37.05;;;19.45;;
70927;SDS011;58587;53.034;18.576;2024-02-16T07:32:04;40.72;;;24.30;;
70927;SDS011;58587;53.034;18.576;2024-02-16T07:34:29;38.93;;;21.63;;
70927;SDS011;58587;53.034;18.576;2024-02-16T07:36:55;35.20;;;19.50;;
70927;SDS011;58587;53.034;18.576;2024-02-16T07:39:20;35.07;;;19.93;;
70927;SDS011;58587;53.034;18.576;2024-02-16T07:41:48;36.88;;;19.95;;
70927;SDS011;58587;53.034;18.576;2024-02-16T07:44:13;83.37;;;54.57;;
70927;SDS011;58587;53.034;18.576;2024-02-16T07:46:39;47.57;;;25.40;;
70927;SDS011;58587;53.034;18.576;2024-02-16T07:49:08;63.25;;;29.20;;
70927;SDS011;58587;53.034;18.576;2024-02-16T07:51:35;44.58;;;24.35;;
70927;SDS011;58587;53.034;18.576;2024-02-16T07:54:02;99.32;;;34.65;;
70927;SDS011;58587;53.034;18.576;2024-02-16T07:56:28;63.13;;;25.67;;
70927;SDS011;58587;53.034;18.576;2024-02-16T07:58:55;56.80;;;28.03;;
70927;SDS011;58587;53.034;18.576;2024-02-16T08:01:20;38.17;;;21.55;;
70927;SDS011;58587;53.034;18.576;2024-02-16T08:03:46;42.43;;;23.53;;
70927;SDS011;58587;53.034;18.576;2024-02-16T08:06:11;46.23;;;27.00;;
70927;SDS011;58587;53.034;18.576;2024-02-16T08:08:37;37.97;;;21.43;;
70927;SDS011;58587;53.034;18.576;2024-02-16T08:11:02;34.05;;;19.30;;
70927;SDS011;58587;53.034;18.576;2024-02-16T08:13:28;38.70;;;20.87;;
70927;SDS011;58587;53.034;18.576;2024-02-16T08:15:53;36.90;;;20.70;;
70927;SDS011;58587;53.034;18.576;2024-02-16T08:18:18;35.83;;;20.37;;
70927;SDS011;58587;53.034;18.576;2024-02-16T08:20:45;37.17;;;20.50;;
70927;SDS011;58587;53.034;18.576;2024-02-16T08:23:10;34.37;;;19.37;;
70927;SDS011;58587;53.034;18.576;2024-02-16T08:25:35;38.80;;;19.87;;
70927;SDS011;58587;53.034;18.576;2024-02-16T08:28:01;36.13;;;21.10;;
70927;SDS011;58587;53.034;18.576;2024-02-16T08:30:27;38.33;;;22.25;;
70927;SDS011;58587;53.034;18.576;2024-02-16T08:32:52;43.22;;;26.08;;
70927;SDS011;58587;53.034;18.576;2024-02-16T08:35:18;35.88;;;18.98;;
70927;SDS011;58587;53.034;18.576;2024-02-16T08:37:44;36.60;;;20.10;;
70927;SDS011;58587;53.034;18.576;2024-02-16T08:40:12;39.10;;;20.10;;
70927;SDS011;58587;53.034;18.576;2024-02-16T08:42:39;45.30;;;24.65;;
70927;SDS011;58587;53.034;18.576;2024-02-16T08:45:06;31.63;;;18.25;;
70927;SDS011;58587;53.034;18.576;2024-02-16T08:47:32;44.20;;;26.13;;
70927;SDS011;58587;53.034;18.576;2024-02-16T08:49:57;39.80;;;18.60;;
70927;SDS011;58587;53.034;18.576;2024-02-16T08:52:22;46.73;;;26.70;;
70927;SDS011;58587;53.034;18.576;2024-02-16T08:54:48;45.03;;;26.20;;
70927;SDS011;58587;53.034;18.576;2024-02-16T08:57:13;76.10;;;43.53;;
70927;SDS011;58587;53.034;18.576;2024-02-16T08:59:38;44.83;;;26.27;;
70927;SDS011;58587;53.034;18.576;2024-02-16T09:02:04;35.77;;;21.23;;
70927;SDS011;58587;53.034;18.576;2024-02-16T09:04:30;59.90;;;29.05;;
70927;SDS011;58587;53.034;18.576;2024-02-16T09:06:56;51.87;;;27.13;;
70927;SDS011;58587;53.034;18.576;2024-02-16T09:09:21;62.97;;;30.50;;
70927;SDS011;58587;53.034;18.576;2024-02-16T09:11:47;40.90;;;22.80;;
70927;SDS011;58587;53.034;18.576;2024-02-16T09:14:13;35.55;;;20.15;;
70927;SDS011;58587;53.034;18.576;2024-02-16T09:16:38;37.17;;;21.05;;
70927;SDS011;58587;53.034;18.576;2024-02-16T09:19:04;38.53;;;21.97;;
70927;SDS011;58587;53.034;18.576;2024-02-16T09:21:29;40.43;;;21.87;;
70927;SDS011;58587;53.034;18.576;2024-02-16T09:23:55;40.47;;;21.70;;
70927;SDS011;58587;53.034;18.576;2024-02-16T09:26:23;40.42;;;21.80;;
70927;SDS011;58587;53.034;18.576;2024-02-16T09:28:51;36.70;;;21.00;;
70927;SDS011;58587;53.034;18.576;2024-02-16T09:31:18;36.42;;;19.70;;
70927;SDS011;58587;53.034;18.576;2024-02-16T09:33:43;35.23;;;18.33;;
70927;SDS011;58587;53.034;18.576;2024-02-16T09:36:09;39.57;;;21.27;;
70927;SDS011;58587;53.034;18.576;2024-02-16T09:38:34;37.53;;;21.70;;
70927;SDS011;58587;53.034;18.576;2024-02-16T09:40:59;35.65;;;20.08;;
70927;SDS011;58587;53.034;18.576;2024-02-16T09:43:27;37.10;;;20.30;;
70927;SDS011;58587;53.034;18.576;2024-02-16T09:45:54;33.92;;;20.55;;
70927;SDS011;58587;53.034;18.576;2024-02-16T09:48:20;29.95;;;16.52;;
70927;SDS011;58587;53.034;18.576;2024-02-16T09:50:46;33.58;;;18.73;;
70927;SDS011;58587;53.034;18.576;2024-02-16T09:53:12;28.20;;;16.87;;
70927;SDS011;58587;53.034;18.576;2024-02-16T09:55:37;31.58;;;17.02;;
70927;SDS011;58587;53.034;18.576;2024-02-16T09:58:04;29.90;;;17.17;;
70927;SDS011;58587;53.034;18.576;2024-02-16T10:00:30;30.50;;;16.38;;
70927;SDS011;58587;53.034;18.576;2024-02-16T10:02:55;29.33;;;16.73;;
70927;SDS011;58587;53.034;18.576;2024-02-16T10:05:20;30.20;;;17.17;;
70927;SDS011;58587;53.034;18.576;2024-02-16T10:07:46;29.27;;;16.93;;
70927;SDS011;58587;53.034;18.576;2024-02-16T10:10:27;33.05;;;18.33;;
70927;SDS011;58587;53.034;18.576;2024-02-16T10:13:04;29.35;;;16.50;;
70927;SDS011;58587;53.034;18.576;2024-02-16T10:15:33;28.55;;;15.93;;
70927;SDS011;58587;53.034;18.576;2024-02-16T10:18:03;32.42;;;16.38;;
70927;SDS011;58587;53.034;18.576;2024-02-16T10:20:30;28.67;;;16.15;;
70927;SDS011;58587;53.034;18.576;2024-02-16T10:23:06;28.77;;;15.50;;
70927;SDS011;58587;53.034;18.576;2024-02-16T10:25:36;40.15;;;22.13;;
70927;SDS011;58587;53.034;18.576;2024-02-16T10:28:07;60.67;;;28.60;;
70927;SDS011;58587;53.034;18.576;2024-02-16T10:30:37;54.88;;;29.00;;
70927;SDS011;58587;53.034;18.576;2024-02-16T10:33:06;28.45;;;15.80;;
70927;SDS011;58587;53.034;18.576;2024-02-16T10:35:33;26.65;;;15.02;;
70927;SDS011;58587;53.034;18.576;2024-02-16T10:38:01;29.15;;;17.25;;
70927;SDS011;58587;53.034;18.576;2024-02-16T10:40:34;36.33;;;19.40;;
70927;SDS011;58587;53.034;18.576;2024-02-16T10:43:06;37.45;;;21.52;;
70927;SDS011;58587;53.034;18.576;2024-02-16T10:45:33;109.50;;;73.85;;
70927;SDS011;58587;53.034;18.576;2024-02-16T10:48:00;62.22;;;43.65;;
70927;SDS011;58587;53.034;18.576;2024-02-16T10:50:25;59.10;;;39.22;;
70927;SDS011;58587;53.034;18.576;2024-02-16T10:52:51;65.13;;;41.17;;
70927;SDS011;58587;53.034;18.576;2024-02-16T10:55:18;38.03;;;23.20;;
70927;SDS011;58587;53.034;18.576;2024-02-16T10:57:44;39.13;;;23.77;;
70927;SDS011;58587;53.034;18.576;2024-02-16T11:00:10;35.53;;;20.85;;
70927;SDS011;58587;53.034;18.576;2024-02-16T11:02:57;38.28;;;23.83;;
70927;SDS011;58587;53.034;18.576;2024-02-16T11:05:39;43.10;;;29.43;;
70927;SDS011;58587;53.034;18.576;2024-02-16T11:08:14;51.47;;;37.20;;
70927;SDS011;58587;53.034;18.576;2024-02-16T11:10:41;46.47;;;32.65;;
70927;SDS011;58587;53.034;18.576;2024-02-16T11:13:06;52.23;;;37.37;;
70927;SDS011;58587;53.034;18.576;2024-02-16T11:15:33;37.90;;;23.65;;
70927;SDS011;58587;53.034;18.576;2024-02-16T11:18:00;42.35;;;26.67;;
70927;SDS011;58587;53.034;18.576;2024-02-16T11:20:26;33.40;;;20.05;;
70927;SDS011;58587;53.034;18.576;2024-02-16T11:22:52;39.03;;;24.27;;
70927;SDS011;58587;53.034;18.576;2024-02-16T11:25:18;34.13;;;21.23;;
70927;SDS011;58587;53.034;18.576;2024-02-16T11:27:45;33.55;;;21.48;;
70927;SDS011;58587;53.034;18.576;2024-02-16T11:30:12;42.33;;;28.15;;
70927;SDS011;58587;53.034;18.576;2024-02-16T11:32:37;35.50;;;23.20;;
70927;SDS011;58587;53.034;18.576;2024-02-16T11:35:06;44.67;;;33.83;;
70927;SDS011;58587;53.034;18.576;2024-02-16T11:37:32;36.80;;;25.63;;
70927;SDS011;58587;53.034;18.576;2024-02-16T11:39:58;37.42;;;22.60;;
70927;SDS011;58587;53.034;18.576;2024-02-16T11:42:23;31.10;;;18.07;;
70927;SDS011;58587;53.034;18.576;2024-02-16T11:44:53;33.37;;;19.27;;
70927;SDS011;58587;53.034;18.576;2024-02-16T11:47:20;30.67;;;18.50;;
70927;SDS011;58587;53.034;18.576;2024-02-16T11:49:59;33.30;;;23.33;;
70927;SDS011;58587;53.034;18.576;2024-02-16T11:52:27;31.67;;;20.27;;
70927;SDS011;58587;53.034;18.576;2024-02-16T11:54:53;35.90;;;22.53;;
70927;SDS011;58587;53.034;18.576;2024-02-16T11:57:19;27.67;;;17.90;;
70927;SDS011;58587;53.034;18.576;2024-02-16T11:59:44;118.30;;;46.93;;
70927;SDS011;58587;53.034;18.576;2024-02-16T12:02:16;164.40;;;56.13;;
70927;SDS011;58587;53.034;18.576;2024-02-16T12:04:44;117.03;;;41.80;;
70927;SDS011;58587;53.034;18.576;2024-02-16T12:07:12;93.80;;;36.87;;
70927;SDS011;58587;53.034;18.576;2024-02-16T12:09:37;54.53;;;25.73;;
70927;SDS011;58587;53.034;18.576;2024-02-16T12:12:04;109.23;;;39.47;;
70927;SDS011;58587;53.034;18.576;2024-02-16T12:14:30;90.72;;;38.03;;
70927;SDS011;58587;53.034;18.576;2024-02-16T12:16:56;77.03;;;31.00;;
70927;SDS011;58587;53.034;18.576;2024-02-16T12:19:23;57.43;;;41.40;;
70927;SDS011;58587;53.034;18.576;2024-02-16T12:21:49;33.08;;;22.90;;
70927;SDS011;58587;53.034;18.576;2024-02-16T12:24:16;59.92;;;30.30;;
70927;SDS011;58587;53.034;18.576;2024-02-16T12:26:41;62.63;;;31.03;;
70927;SDS011;58587;53.034;18.576;2024-02-16T12:29:07;127.80;;;55.93;;
70927;SDS011;58587;53.034;18.576;2024-02-16T12:31:33;122.88;;;50.00;;
70927;SDS011;58587;53.034;18.576;2024-02-16T12:34:02;57.10;;;28.05;;
70927;SDS011;58587;53.034;18.576;2024-02-16T12:36:29;132.40;;;55.63;;
70927;SDS011;58587;53.034;18.576;2024-02-16T12:38:54;107.17;;;45.80;;
70927;SDS011;58587;53.034;18.576;2024-02-16T12:41:20;41.03;;;20.53;;
70927;SDS011;58587;53.034;18.576;2024-02-16T12:43:45;145.60;;;60.73;;
70927;SDS011;58587;53.034;18.576;2024-02-16T12:46:10;33.53;;;18.00;;
70927;SDS011;58587;53.034;18.576;2024-02-16T12:48:36;30.13;;;16.87;;
70927;SDS011;58587;53.034;18.576;2024-02-16T12:51:01;48.80;;;26.27;;
70927;SDS011;58587;53.034;18.576;2024-02-16T12:53:26;22.67;;;14.47;;
70927;SDS011;58587;53.034;18.576;2024-02-16T12:55:55;36.53;;;21.60;;
70927;SDS011;58587;53.034;18.576;2024-02-16T12:58:20;50.03;;;28.57;;
70927;SDS011;58587;53.034;18.576;2024-02-16T13:00:45;40.03;;;24.37;;
70927;SDS011;58587;53.034;18.576;2024-02-16T13:03:11;38.70;;;24.07;;
70927;SDS011;58587;53.034;18.576;2024-02-16T13:05:36;29.07;;;20.57;;
70927;SDS011;58587;53.034;18.576;2024-02-16T13:08:01;23.27;;;18.00;;
70927;SDS011;58587;53.034;18.576;2024-02-16T13:10:27;16.37;;;12.00;;
70927;SDS011;58587;53.034;18.576;2024-02-16T13:12:52;18.70;;;14.20;;
70927;SDS011;58587;53.034;18.576;2024-02-16T13:15:17;55.83;;;36.27;;
70927;SDS011;58587;53.034;18.576;2024-02-16T13:17:43;89.43;;;46.53;;
70927;SDS011;58587;53.034;18.576;2024-02-16T13:20:08;118.67;;;58.30;;
70927;SDS011;58587;53.034;18.576;2024-02-16T13:22:36;180.82;;;92.93;;
70927;SDS011;58587;53.034;18.576;2024-02-16T13:25:04;189.47;;;90.20;;
70927;SDS011;58587;53.034;18.576;2024-02-16T13:27:31;137.13;;;62.25;;
70927;SDS011;58587;53.034;18.576;2024-02-16T13:29:57;68.78;;;35.70;;
70927;SDS011;58587;53.034;18.576;2024-02-16T13:32:23;128.23;;;59.00;;
70927;SDS011;58587;53.034;18.576;2024-02-16T13:34:49;99.77;;;51.70;;
70927;SDS011;58587;53.034;18.576;2024-02-16T13:37:14;76.90;;;40.43;;
70927;SDS011;58587;53.034;18.576;2024-02-16T13:39:39;138.37;;;64.17;;
70927;SDS011;58587;53.034;18.576;2024-02-16T13:42:05;140.77;;;64.87;;
70927;SDS011;58587;53.034;18.576;2024-02-16T13:44:31;83.90;;;43.42;;
70927;SDS011;58587;53.034;18.576;2024-02-16T13:46:56;82.63;;;42.93;;
70927;SDS011;58587;53.034;18.576;2024-02-16T13:49:22;70.17;;;40.63;;
70927;SDS011;58587;53.034;18.576;2024-02-16T13:51:48;42.40;;;23.80;;
70927;SDS011;58587;53.034;18.576;2024-02-16T13:54:13;33.63;;;21.60;;
70927;SDS011;58587;53.034;18.576;2024-02-16T13:56:39;41.33;;;25.03;;
70927;SDS011;58587;53.034;18.576;2024-02-16T13:59:04;46.43;;;27.37;;
70927;SDS011;58587;53.034;18.576;2024-02-16T14:01:31;25.03;;;21.53;;
70927;SDS011;58587;53.034;18.576;2024-02-16T14:04:01;20.40;;;16.67;;